Time;durP1;ratioP1;P1;durP2;ratioP2;P2;SDS_P1;SDS_P2;PMS_P1;PMS_P2;Temp;Humidity;BMP_temperature;BMP_pressure;BME280_temperature;BME280_humidity;BME280_pressure;Samples;Min_cycle;Max_cycle;Signal;HPM_P1;HPM_P2
2023/06/28 00:00:08;;;;;;;19.33;5.13;;;18.40;99.90;;;;;;5046542;28;20060;-81
2023/06/28 00:02:35;;;;;;;11.65;4.85;;;18.40;99.90;;;;;;5045593;28;20021;-81
2023/06/28 00:05:08;;;;;;;13.43;5.20;;;18.40;99.90;;;;;;5046079;28;20140;-81
2023/06/28 00:07:35;;;;;;;13.00;4.72;;;18.40;99.90;;;;;;5026800;28;20107;-80
2023/06/28 00:10:00;;;;;;;12.18;4.70;;;18.40;99.90;;;;;;5027035;28;20121;-80
2023/06/28 00:12:29;;;;;;;14.45;5.20;;;18.40;99.90;;;;;;5037587;28;20104;-81
2023/06/28 00:14:56;;;;;;;14.95;5.32;;;18.40;99.90;;;;;;5045155;28;20346;-81
2023/06/28 00:17:27;;;;;;;12.50;5.40;;;18.40;99.90;;;;;;5044556;28;20021;-81
2023/06/28 00:19:56;;;;;;;;;;;18.40;99.90;;;;;;5046705;28;20044;-81
2023/06/28 00:22:29;;;;;;;16.15;5.63;;;18.40;99.90;;;;;;5034893;28;20077;-81
2023/06/28 00:25:04;;;;;;;14.82;6.05;;;18.40;99.90;;;;;;5026572;28;20025;-80
2023/06/28 00:27:30;;;;;;;13.85;5.25;;;18.30;99.90;;;;;;5029266;28;20021;-81
2023/06/28 00:29:56;;;;;;;10.00;6.13;;;18.30;99.90;;;;;;5046812;28;20111;-81
2023/06/28 00:32:26;;;;;;;13.00;5.85;;;18.20;99.90;;;;;;5043820;28;20071;-81
2023/06/28 00:34:52;;;;;;;19.55;6.22;;;18.20;99.90;;;;;;5038619;28;20029;-81
2023/06/28 00:37:18;;;;;;;16.33;6.88;;;18.30;99.90;;;;;;5046308;28;20043;-81
2023/06/28 00:39:43;;;;;;;15.82;6.63;;;18.30;99.90;;;;;;5044786;28;20507;-80
2023/06/28 00:42:09;;;;;;;15.50;6.68;;;18.30;99.90;;;;;;5045997;28;20104;-81
2023/06/28 00:44:35;;;;;;;11.93;6.50;;;18.20;99.90;;;;;;5045228;28;20037;-81
2023/06/28 00:47:02;;;;;;;19.13;6.22;;;18.20;99.90;;;;;;5028517;28;20108;-80
2023/06/28 00:49:31;;;;;;;15.07;5.85;;;18.30;99.90;;;;;;5034812;28;20475;-81
2023/06/28 00:51:57;;;;;;;11.98;5.82;;;18.30;99.90;;;;;;5044983;28;20036;-80
2023/06/28 00:54:23;;;;;;;13.45;6.03;;;18.30;99.90;;;;;;5045707;28;20039;-81
2023/06/28 00:56:50;;;;;;;17.30;6.25;;;18.30;99.90;;;;;;5044697;28;20420;-81
2023/06/28 00:59:16;;;;;;;12.45;6.40;;;18.30;99.90;;;;;;5045447;28;20535;-80
2023/06/28 01:01:42;;;;;;;14.60;6.95;;;18.40;99.90;;;;;;5045818;28;20123;-81
2023/06/28 01:04:08;;;;;;;12.95;6.38;;;18.30;99.90;;;;;;5044005;28;20399;-81
2023/06/28 01:06:37;;;;;;;12.15;6.03;;;18.40;99.90;;;;;;5045855;28;20031;-81
2023/06/28 01:09:04;;;;;;;13.48;6.82;;;18.40;99.90;;;;;;5045478;28;20064;-81
2023/06/28 01:11:33;;;;;;;15.05;6.88;;;18.40;99.90;;;;;;5045950;28;20112;-81
2023/06/28 01:13:59;;;;;;;14.38;7.28;;;18.40;99.90;;;;;;5045833;28;20097;-80
2023/06/28 01:16:24;;;;;;;16.10;6.65;;;18.40;99.90;;;;;;5045187;28;20435;-81
2023/06/28 01:18:50;;;;;;;10.95;6.03;;;18.40;99.90;;;;;;5045587;28;20028;-81
2023/06/28 01:21:17;;;;;;;14.35;6.50;;;18.40;99.90;;;;;;5044884;28;20033;-81
2023/06/28 01:23:45;;;;;;;14.25;6.13;;;18.40;99.90;;;;;;5045372;28;20033;-81
2023/06/28 01:26:11;;;;;;;13.48;7.00;;;18.40;99.90;;;;;;5044444;28;20033;-80
2023/06/28 01:28:37;;;;;;;14.70;6.90;;;18.40;99.90;;;;;;5046110;28;20045;-81
2023/06/28 01:31:04;;;;;;;15.30;7.13;;;18.40;99.90;;;;;;5047870;28;20029;-80
2023/06/28 01:33:30;;;;;;;19.58;7.32;;;18.40;99.90;;;;;;5032167;28;20515;-81
2023/06/28 01:35:59;;;;;;;14.63;7.10;;;18.40;99.90;;;;;;5024027;28;20026;-81
2023/06/28 01:38:27;;;;;;;15.90;7.40;;;18.40;99.90;;;;;;5033344;28;20028;-80
2023/06/28 01:40:54;;;;;;;17.50;7.97;;;18.30;99.90;;;;;;5043763;28;20523;-81
2023/06/28 01:43:21;;;;;;;16.73;8.10;;;18.30;99.90;;;;;;5039703;28;20518;-80
2023/06/28 01:45:49;;;;;;;15.38;8.02;;;18.30;99.90;;;;;;5026992;28;20017;-81
2023/06/28 01:48:15;;;;;;;16.80;8.07;;;18.30;99.90;;;;;;5031349;28;20053;-81
2023/06/28 01:50:41;;;;;;;16.00;8.20;;;18.20;99.90;;;;;;5026684;28;20503;-80
2023/06/28 01:53:07;;;;;;;19.23;8.20;;;18.30;99.90;;;;;;5024468;28;20033;-80
2023/06/28 01:55:32;;;;;;;21.90;8.70;;;18.30;99.90;;;;;;5040939;28;20076;-81
2023/06/28 01:57:58;;;;;;;18.15;8.68;;;18.30;99.90;;;;;;5044830;28;20033;-81
2023/06/28 02:00:24;;;;;;;15.20;9.00;;;18.30;99.90;;;;;;5044235;28;20029;-81
2023/06/28 02:02:50;;;;;;;24.05;9.05;;;18.30;99.90;;;;;;5043892;28;20047;-81
2023/06/28 02:05:17;;;;;;;20.98;8.63;;;18.30;99.90;;;;;;5044310;28;20396;-81
2023/06/28 02:07:42;;;;;;;15.15;8.40;;;18.30;99.90;;;;;;5043873;28;20025;-80
2023/06/28 02:10:10;;;;;;;20.13;8.40;;;18.30;99.90;;;;;;5042230;28;20044;-80
2023/06/28 02:12:35;;;;;;;18.40;8.52;;;18.30;99.90;;;;;;5059188;28;20032;-80
2023/06/28 02:15:02;;;;;;;16.45;8.52;;;18.30;99.90;;;;;;5040771;28;20551;-80
2023/06/28 02:17:30;;;;;;;18.58;9.73;;;18.30;99.90;;;;;;5042079;28;22676;-81
2023/06/28 02:19:56;;;;;;;16.67;8.88;;;18.30;99.90;;;;;;5043937;28;20033;-81
2023/06/28 02:22:22;;;;;;;23.75;9.20;;;18.30;99.90;;;;;;5024386;28;20048;-80
2023/06/28 02:24:47;;;;;;;17.70;8.77;;;18.40;99.90;;;;;;5024134;28;20108;-80
2023/06/28 02:27:14;;;;;;;18.80;9.75;;;18.40;99.90;;;;;;5038272;28;20092;-80
2023/06/28 02:29:39;;;;;;;18.17;9.10;;;18.40;99.90;;;;;;5040019;28;20048;-81
2023/06/28 02:32:05;;;;;;;18.02;9.52;;;18.40;99.90;;;;;;5046803;28;20037;-80
2023/06/28 02:34:31;;;;;;;17.77;9.40;;;18.40;99.90;;;;;;5032691;28;20063;-81
2023/06/28 02:36:57;;;;;;;16.73;9.43;;;18.40;99.90;;;;;;5032704;28;20020;-81
2023/06/28 02:39:23;;;;;;;16.83;8.77;;;18.40;99.90;;;;;;5031953;28;20033;-80
2023/06/28 02:41:48;;;;;;;22.98;9.40;;;18.40;99.90;;;;;;5027431;28;20032;-81
2023/06/28 02:44:17;;;;;;;15.55;8.90;;;18.40;99.90;;;;;;5032444;28;20079;-81
2023/06/28 02:46:43;;;;;;;16.73;9.02;;;18.40;99.90;;;;;;5047904;28;20029;-81
2023/06/28 02:49:08;;;;;;;16.15;8.43;;;18.40;99.90;;;;;;5047841;28;20094;-81
2023/06/28 02:51:34;;;;;;;18.23;8.32;;;18.40;99.90;;;;;;5047012;28;20052;-81
2023/06/28 02:54:00;;;;;;;18.70;9.00;;;18.40;99.90;;;;;;5045683;28;20087;-81
2023/06/28 02:56:26;;;;;;;16.02;9.40;;;18.40;99.90;;;;;;5044488;28;20021;-80
2023/06/28 02:58:52;;;;;;;16.02;9.38;;;18.40;99.90;;;;;;5028079;28;20056;-81
2023/06/28 03:01:20;;;;;;;16.80;9.07;;;18.40;99.90;;;;;;5042479;28;20404;-81
2023/06/28 03:03:46;;;;;;;16.45;9.68;;;18.40;99.90;;;;;;5039248;28;20029;-81
2023/06/28 03:06:11;;;;;;;17.65;8.70;;;18.40;99.90;;;;;;5039540;28;20394;-81
2023/06/28 03:08:37;;;;;;;16.15;8.50;;;18.30;99.90;;;;;;5032166;28;20045;-81
2023/06/28 03:11:02;;;;;;;16.23;9.45;;;18.30;99.90;;;;;;5040704;28;20074;-81
2023/06/28 03:13:28;;;;;;;18.17;9.63;;;18.40;99.90;;;;;;5047707;28;20112;-81
2023/06/28 03:15:54;;;;;;;20.55;10.05;;;18.40;99.90;;;;;;5046315;28;20432;-81
2023/06/28 03:18:19;;;;;;;14.55;8.95;;;18.40;99.90;;;;;;5048115;28;20036;-81
2023/06/28 03:20:45;;;;;;;16.33;9.95;;;18.40;99.90;;;;;;5046329;28;20087;-81
2023/06/28 03:23:10;;;;;;;17.60;9.55;;;18.40;99.90;;;;;;5047622;28;20476;-80
2023/06/28 03:25:36;;;;;;;20.20;9.73;;;18.40;99.90;;;;;;5042689;28;20061;-81
2023/06/28 03:28:01;;;;;;;22.23;10.15;;;18.40;99.90;;;;;;5034712;28;20033;-81
2023/06/28 03:30:27;;;;;;;18.25;10.32;;;18.40;99.90;;;;;;5046125;28;20046;-81
2023/06/28 03:32:53;;;;;;;22.23;10.40;;;18.40;99.90;;;;;;5044710;28;20027;-81
2023/06/28 03:35:18;;;;;;;22.75;10.20;;;18.40;99.90;;;;;;5046806;28;20480;-81
2023/06/28 03:37:51;;;;;;;19.88;10.13;;;18.40;99.90;;;;;;5045035;28;20472;-80
2023/06/28 03:40:17;;;;;;;22.88;10.43;;;18.30;99.90;;;;;;5027520;28;20052;-81
2023/06/28 03:42:42;;;;;;;19.83;10.25;;;18.30;99.90;;;;;;5047759;28;20563;-81
2023/06/28 03:45:08;;;;;;;19.40;9.82;;;18.30;99.90;;;;;;5032874;28;20032;-81
2023/06/28 03:47:34;;;;;;;19.42;10.63;;;18.30;99.90;;;;;;5046717;28;20400;-80
2023/06/28 03:50:00;;;;;;;20.15;10.85;;;18.30;99.90;;;;;;5046652;28;20040;-81
2023/06/28 03:52:25;;;;;;;22.23;11.48;;;18.30;99.90;;;;;;5046821;28;20035;-81
2023/06/28 03:54:51;;;;;;;15.88;9.98;;;18.20;99.90;;;;;;5050591;28;20033;-81
2023/06/28 03:57:17;;;;;;;21.33;10.38;;;18.20;99.90;;;;;;5027267;28;20609;-81
2023/06/28 03:59:42;;;;;;;21.38;11.45;;;18.10;99.90;;;;;;5041905;28;20116;-81
2023/06/28 04:02:08;;;;;;;22.55;10.95;;;18.10;99.90;;;;;;5050689;28;20028;-81
2023/06/28 04:04:34;;;;;;;19.48;10.65;;;18.00;99.90;;;;;;5066753;28;20059;-81
2023/06/28 04:07:01;;;;;;;22.58;10.80;;;18.00;99.90;;;;;;5065023;28;20031;-81
2023/06/28 04:09:27;;;;;;;25.58;11.70;;;18.00;99.90;;;;;;5045160;28;20094;-81
2023/06/28 04:11:52;;;;;;;18.58;10.45;;;18.00;99.90;;;;;;5039827;28;20033;-80
2023/06/28 04:14:18;;;;;;;19.58;11.15;;;17.90;99.90;;;;;;5025672;28;20053;-81
2023/06/28 04:16:43;;;;;;;18.52;10.98;;;17.90;99.90;;;;;;5039980;28;20071;-81
2023/06/28 04:19:09;;;;;;;25.85;12.45;;;17.90;99.90;;;;;;5043484;28;20025;-81
2023/06/28 04:21:35;;;;;;;23.13;11.40;;;17.90;99.90;;;;;;5047407;28;20033;-81
2023/06/28 04:24:01;;;;;;;25.38;11.60;;;17.90;99.90;;;;;;5046232;28;20036;-81
2023/06/28 04:26:26;;;;;;;24.65;12.02;;;17.90;99.90;;;;;;5045463;28;20121;-81
2023/06/28 04:28:52;;;;;;;27.67;12.10;;;18.00;99.90;;;;;;5046784;28;20130;-81
2023/06/28 04:31:17;;;;;;;23.90;12.15;;;18.00;99.90;;;;;;5045739;28;20052;-81
2023/06/28 04:33:43;;;;;;;21.08;11.43;;;18.10;99.90;;;;;;5046205;28;20063;-81
2023/06/28 04:36:09;;;;;;;22.23;11.63;;;18.10;99.90;;;;;;5049375;28;20036;-81
2023/06/28 04:38:35;;;;;;;24.77;12.70;;;18.20;99.90;;;;;;5057845;28;20029;-81
2023/06/28 04:41:00;;;;;;;20.25;11.52;;;18.20;99.90;;;;;;5045359;28;20048;-81
2023/06/28 04:43:26;;;;;;;22.65;12.07;;;18.20;99.90;;;;;;5034106;28;20033;-81
2023/06/28 04:45:55;;;;;;;20.58;12.80;;;18.30;99.90;;;;;;5024681;28;20139;-80
2023/06/28 04:48:21;;;;;;;19.38;12.02;;;18.30;99.90;;;;;;5026668;28;20025;-81
2023/06/28 04:50:47;;;;;;;19.73;12.48;;;18.30;99.90;;;;;;5037993;28;20883;-81
2023/06/28 04:53:13;;;;;;;22.33;12.05;;;18.40;99.90;;;;;;5040313;28;20525;-81
2023/06/28 04:55:38;;;;;;;22.15;12.15;;;18.50;99.90;;;;;;5053281;28;20044;-81
2023/06/28 04:58:05;;;;;;;28.23;12.20;;;18.50;99.90;;;;;;5044394;28;20029;-81
2023/06/28 05:00:32;;;;;;;22.02;12.10;;;18.60;99.90;;;;;;5045106;28;20045;-81
2023/06/28 05:02:59;;;;;;;21.83;11.93;;;18.60;99.90;;;;;;5045546;28;20029;-81
2023/06/28 05:05:26;;;;;;;20.20;12.07;;;18.70;99.90;;;;;;5043516;28;20397;-81
2023/06/28 05:07:55;;;;;;;22.58;12.00;;;18.70;99.90;;;;;;5043157;28;20043;-81
2023/06/28 05:10:23;;;;;;;24.05;11.38;;;18.70;99.90;;;;;;5052532;28;20037;-81
2023/06/28 05:12:52;;;;;;;23.17;11.73;;;18.80;99.90;;;;;;5065346;28;20115;-81
2023/06/28 05:15:18;;;;;;;23.63;11.27;;;18.90;99.90;;;;;;5045392;28;20025;-81
2023/06/28 05:17:44;;;;;;;24.52;12.27;;;19.00;99.90;;;;;;5043592;28;20033;-81
2023/06/28 05:20:10;;;;;;;21.50;11.18;;;19.10;99.90;;;;;;5044001;28;20032;-81
2023/06/28 05:22:46;;;;;;;21.80;11.60;;;19.20;99.90;;;;;;5045208;28;20116;-80
2023/06/28 05:25:11;;;;;;;22.65;11.15;;;19.20;99.90;;;;;;5035692;28;20049;-81
2023/06/28 05:27:37;;;;;;;22.35;11.43;;;19.30;99.90;;;;;;5051003;28;20040;-80
2023/06/28 05:30:04;;;;;;;19.88;11.77;;;19.40;99.90;;;;;;5043645;28;20132;-81
2023/06/28 05:32:29;;;;;;;23.70;10.98;;;19.50;99.90;;;;;;5045599;28;20025;-81
2023/06/28 05:34:55;;;;;;;18.70;11.15;;;19.60;99.90;;;;;;5044043;28;20037;-80
2023/06/28 05:37:20;;;;;;;22.63;11.27;;;19.70;99.90;;;;;;5045077;28;20023;-81
2023/06/28 05:39:47;;;;;;;20.20;10.98;;;19.80;99.90;;;;;;5045184;28;20072;-81
2023/06/28 05:42:13;;;;;;;20.52;10.82;;;20.00;99.90;;;;;;5046072;28;20484;-80
2023/06/28 05:44:38;;;;;;;22.10;10.27;;;20.10;99.90;;;;;;5045079;28;20035;-81
2023/06/28 05:47:04;;;;;;;21.67;10.90;;;20.10;99.90;;;;;;5045818;28;20040;-80
2023/06/28 05:49:31;;;;;;;25.33;11.32;;;20.10;99.90;;;;;;5044796;28;20049;-80
2023/06/28 05:51:57;;;;;;;22.00;10.40;;;20.20;99.90;;;;;;5043937;28;20033;-80
2023/06/28 05:54:23;;;;;;;18.10;10.45;;;20.10;99.90;;;;;;5043485;28;20161;-80
2023/06/28 05:56:49;;;;;;;19.48;11.35;;;20.20;99.90;;;;;;5030294;28;20079;-81
2023/06/28 05:59:14;;;;;;;18.88;10.90;;;20.30;99.90;;;;;;5025142;28;20037;-81
2023/06/28 06:01:40;;;;;;;19.88;10.60;;;20.40;99.90;;;;;;5036903;28;20021;-81
2023/06/28 06:04:05;;;;;;;19.45;10.45;;;20.50;99.90;;;;;;5047853;28;20048;-81
2023/06/28 06:06:31;;;;;;;140.80;103.78;;;20.50;99.90;;;;;;5043921;28;20509;-81
2023/06/28 06:08:57;;;;;;;139.73;88.78;;;20.70;99.90;;;;;;5044118;28;20067;-80
2023/06/28 06:11:22;;;;;;;39.17;20.38;;;20.80;99.90;;;;;;5049110;28;20037;-81
2023/06/28 06:13:48;;;;;;;22.60;11.48;;;20.90;99.90;;;;;;5047622;28;20038;-80
2023/06/28 06:16:13;;;;;;;22.67;12.40;;;21.00;99.90;;;;;;5045396;28;20017;-81
2023/06/28 06:18:40;;;;;;;22.05;11.10;;;21.00;99.90;;;;;;5044032;28;20396;-80
2023/06/28 06:21:06;;;;;;;21.15;11.82;;;21.10;99.90;;;;;;5046708;28;20472;-80
2023/06/28 06:23:32;;;;;;;19.42;11.07;;;21.20;99.90;;;;;;5048836;28;20040;-81
2023/06/28 06:25:57;;;;;;;24.45;13.10;;;21.20;99.90;;;;;;5047618;28;20025;-80
2023/06/28 06:28:23;;;;;;;24.10;12.80;;;21.30;99.90;;;;;;5040594;28;20098;-80
2023/06/28 06:30:49;;;;;;;21.95;11.43;;;21.40;99.90;;;;;;5044008;28;20055;-80
2023/06/28 06:33:14;;;;;;;22.58;12.18;;;21.50;99.90;;;;;;5042117;28;20029;-80
2023/06/28 06:35:40;;;;;;;20.75;11.13;;;21.60;99.90;;;;;;5048360;28;20488;-80
2023/06/28 06:38:06;;;;;;;23.40;12.27;;;21.70;99.90;;;;;;5048517;28;20025;-80
2023/06/28 06:40:33;;;;;;;64.22;40.40;;;22.00;99.90;;;;;;5048913;28;20110;-80
2023/06/28 06:42:59;;;;;;;23.08;13.15;;;22.00;99.90;;;;;;5048070;28;20017;-80
2023/06/28 06:45:24;;;;;;;23.35;12.57;;;22.20;99.90;;;;;;5038566;28;20029;-80
2023/06/28 06:47:50;;;;;;;23.23;12.38;;;22.50;99.90;;;;;;5046358;28;20044;-80
2023/06/28 06:50:18;;;;;;;22.40;11.45;;;22.60;99.90;;;;;;5043013;28;20035;-80
2023/06/28 06:52:44;;;;;;;21.67;12.23;;;22.90;99.90;;;;;;5048056;28;20025;-80
2023/06/28 06:55:10;;;;;;;20.80;10.95;;;22.90;99.90;;;;;;5048435;28;20116;-80
2023/06/28 06:57:35;;;;;;;24.02;12.95;;;23.20;99.90;;;;;;5040975;28;20127;-81
2023/06/28 07:00:02;;;;;;;26.63;15.00;;;23.30;99.90;;;;;;5040348;28;20524;-80
2023/06/28 07:02:28;;;;;;;19.63;12.02;;;23.50;99.90;;;;;;5046137;28;20025;-80
2023/06/28 07:04:53;;;;;;;18.00;11.55;;;23.70;99.90;;;;;;5041386;28;20040;-80
2023/06/28 07:07:19;;;;;;;21.95;11.00;;;23.80;99.90;;;;;;5027859;28;20029;-81
2023/06/28 07:09:44;;;;;;;20.63;11.23;;;24.10;99.90;;;;;;5042058;28;20055;-80
2023/06/28 07:12:10;;;;;;;18.98;10.90;;;24.20;99.90;;;;;;5048068;28;20090;-80
2023/06/28 07:14:36;;;;;;;18.70;11.25;;;24.50;99.90;;;;;;5046123;28;20037;-80
2023/06/28 07:17:02;;;;;;;16.02;10.18;;;24.70;99.90;;;;;;5036691;28;20493;-80
2023/06/28 07:19:27;;;;;;;19.08;11.68;;;25.30;99.90;;;;;;5043508;28;20227;-80
2023/06/28 07:21:53;;;;;;;18.58;10.98;;;25.70;99.90;;;;;;5043842;28;20060;-80
2023/06/28 07:24:18;;;;;;;17.52;11.00;;;26.00;99.90;;;;;;5047014;28;20614;-80
2023/06/28 07:26:44;;;;;;;16.35;10.27;;;26.20;99.90;;;;;;5061834;28;20492;-81
2023/06/28 07:29:09;;;;;;;17.58;10.40;;;26.40;99.90;;;;;;5058457;28;20564;-80
2023/06/28 07:31:35;;;;;;;16.98;11.02;;;26.60;99.90;;;;;;5038113;28;20091;-80
2023/06/28 07:34:05;;;;;;;18.70;10.40;;;26.80;99.90;;;;;;5040154;28;20121;-79
2023/06/28 07:36:32;;;;;;;23.40;10.90;;;27.50;99.90;;;;;;5041238;28;20113;-81
2023/06/28 07:38:58;;;;;;;15.65;10.25;;;29.10;99.90;;;;;;5040567;28;20112;-79
2023/06/28 07:41:23;;;;;;;17.45;10.38;;;30.30;99.90;;;;;;5041528;28;20507;-80
2023/06/28 07:43:49;;;;;;;16.35;10.32;;;30.50;96.30;;;;;;5045136;28;20036;-81
2023/06/28 07:46:15;;;;;;;16.33;10.32;;;30.50;95.60;;;;;;5031919;28;20067;-82
2023/06/28 07:48:41;;;;;;;17.45;10.27;;;30.40;96.20;;;;;;5028070;28;20041;-81
2023/06/28 07:51:07;;;;;;;17.65;10.55;;;30.30;96.10;;;;;;5046006;28;20040;-81
2023/06/28 07:53:32;;;;;;;17.45;9.75;;;30.10;98.10;;;;;;5044617;28;20033;-81
2023/06/28 07:55:58;;;;;;;17.02;10.30;;;30.60;95.80;;;;;;5043961;28;20029;-81
2023/06/28 07:58:23;;;;;;;16.42;10.23;;;30.70;93.70;;;;;;5042496;28;20116;-81
2023/06/28 08:00:49;;;;;;;14.65;10.18;;;30.40;94.50;;;;;;5038674;28;20033;-81
2023/06/28 08:03:15;;;;;;;15.82;10.65;;;29.40;95.30;;;;;;5035311;28;20505;-81
2023/06/28 08:05:40;;;;;;;14.30;9.73;;;28.70;99.60;;;;;;5040388;28;20072;-81
2023/06/28 08:08:06;;;;;;;14.30;9.50;;;28.40;99.90;;;;;;5028530;28;20163;-81
2023/06/28 08:10:32;;;;;;;14.13;9.52;;;28.10;99.90;;;;;;5042442;28;20047;-81
2023/06/28 08:12:57;;;;;;;16.15;9.30;;;28.00;99.90;;;;;;5043811;28;20017;-78
2023/06/28 08:15:23;;;;;;;15.32;10.35;;;27.70;99.90;;;;;;5042035;28;20043;-81
2023/06/28 08:17:49;;;;;;;15.95;10.73;;;27.50;99.90;;;;;;5041359;28;20452;-80
2023/06/28 08:20:15;;;;;;;18.73;10.70;;;27.10;99.90;;;;;;5041676;28;20492;-80
2023/06/28 08:22:40;;;;;;;17.38;10.95;;;26.90;99.90;;;;;;5037506;28;20040;-79
2023/06/28 08:25:06;;;;;;;18.17;11.05;;;26.70;99.90;;;;;;5037956;28;20033;-80
2023/06/28 08:27:32;;;;;;;19.27;11.57;;;26.30;99.90;;;;;;5035658;28;20036;-77
2023/06/28 08:29:59;;;;;;;18.92;11.10;;;25.90;99.90;;;;;;5044008;28;20053;-80
2023/06/28 08:32:24;;;;;;;16.35;10.82;;;25.90;99.90;;;;;;5043363;28;20091;-80
2023/06/28 08:34:50;;;;;;;18.67;11.02;;;26.10;99.90;;;;;;5044033;28;20043;-80
2023/06/28 08:37:16;;;;;;;18.38;11.15;;;26.40;99.90;;;;;;5042935;28;20763;-80
2023/06/28 08:39:42;;;;;;;17.60;10.50;;;26.60;99.90;;;;;;5040547;28;20104;-80
2023/06/28 08:42:08;;;;;;;14.95;10.68;;;27.00;99.90;;;;;;5043039;28;20862;-79
2023/06/28 08:44:37;;;;;;;17.48;10.57;;;26.90;99.90;;;;;;5039292;28;20033;-79
2023/06/28 08:47:03;;;;;;;16.00;10.52;;;27.10;99.90;;;;;;5039495;28;20183;-80
2023/06/28 08:49:31;;;;;;;17.67;10.88;;;27.20;99.90;;;;;;5037372;28;20044;-79
2023/06/28 08:51:57;;;;;;;21.35;11.68;;;27.10;99.90;;;;;;5038271;28;20082;-80
2023/06/28 08:54:27;;;;;;;23.33;11.75;;;26.80;99.90;;;;;;5036729;28;20056;-81
2023/06/28 08:56:56;;;;;;;17.25;10.75;;;26.70;99.90;;;;;;5060112;28;20025;-80
2023/06/28 08:59:22;;;;;;;19.77;12.30;;;26.80;99.90;;;;;;5025380;28;20057;-80
2023/06/28 09:01:50;;;;;;;17.38;10.95;;;26.80;99.90;;;;;;5045155;28;20056;-81
2023/06/28 09:04:17;;;;;;;18.70;12.38;;;26.50;99.90;;;;;;5058417;28;20467;-81
2023/06/28 09:06:42;;;;;;;17.58;11.77;;;27.00;99.90;;;;;;5040468;28;20397;-80
2023/06/28 09:09:09;;;;;;;16.65;11.85;;;27.30;99.90;;;;;;5026279;28;20049;-79
2023/06/28 09:11:34;;;;;;;18.60;11.90;;;27.40;99.90;;;;;;5042992;28;20049;-81
2023/06/28 09:14:00;;;;;;;15.57;10.82;;;27.80;99.90;;;;;;5040349;28;20065;-81
2023/06/28 09:16:26;;;;;;;16.83;11.32;;;28.20;99.90;;;;;;5027982;28;20102;-80
2023/06/28 09:18:52;;;;;;;18.17;11.10;;;28.70;99.90;;;;;;5042852;28;20033;-80
2023/06/28 09:21:28;;;;;;;19.95;11.30;;;28.90;96.60;;;;;;5043566;28;20435;-81
2023/06/28 09:23:54;;;;;;;18.00;11.32;;;29.00;97.40;;;;;;5042561;28;20021;-82
2023/06/28 09:26:28;;;;;;;14.77;9.90;;;28.80;97.40;;;;;;5033115;28;20021;-81
2023/06/28 09:28:54;;;;;;;18.25;11.13;;;29.00;98.40;;;;;;5040895;28;20045;-81
2023/06/28 09:31:19;;;;;;;13.98;9.55;;;29.90;96.30;;;;;;5036183;28;20047;-82
2023/06/28 09:33:45;;;;;;;15.52;9.57;;;31.00;96.90;;;;;;5035085;28;20035;-81
2023/06/28 09:36:11;;;;;;;15.73;9.25;;;32.00;85.80;;;;;;5042860;28;20135;-82
2023/06/28 09:38:43;;;;;;;12.57;8.90;;;33.10;81.50;;;;;;5041922;28;20025;-81
2023/06/28 09:41:09;;;;;;;16.10;9.63;;;33.30;77.20;;;;;;5036163;28;20926;-79
2023/06/28 09:43:35;;;;;;;14.32;9.43;;;32.20;76.90;;;;;;5041246;28;20035;-81
2023/06/28 09:46:15;;;;;;;13.85;9.07;;;30.90;84.80;;;;;;5038794;28;20095;-81
2023/06/28 09:48:43;;;;;;;16.20;9.53;;;30.50;88.70;;;;;;5056175;28;20044;-81
2023/06/28 09:51:11;;;;;;;16.25;9.60;;;30.50;90.70;;;;;;5045557;28;20033;-81
2023/06/28 09:53:48;;;;;;;15.43;8.80;;;30.70;89.60;;;;;;5045553;28;20025;-81
2023/06/28 09:56:13;;;;;;;11.73;8.60;;;30.60;90.60;;;;;;5045262;28;20067;-82
2023/06/28 09:58:39;;;;;;;12.60;8.63;;;30.00;90.30;;;;;;5045481;28;20456;-82
2023/06/28 10:01:05;;;;;;;12.55;9.00;;;29.10;93.00;;;;;;5045580;28;20049;-82
2023/06/28 10:03:32;;;;;;;16.15;9.05;;;28.20;95.20;;;;;;5043336;28;20485;-81
2023/06/28 10:05:59;;;;;;;15.45;9.15;;;27.20;99.60;;;;;;5045222;28;20059;-82
2023/06/28 10:08:25;;;;;;;16.55;9.48;;;26.80;99.90;;;;;;5043681;28;20434;-82
2023/06/28 10:10:53;;;;;;;14.98;9.70;;;26.50;99.90;;;;;;5030558;28;20044;-81
2023/06/28 10:13:21;;;;;;;14.77;9.43;;;26.30;99.90;;;;;;5044836;28;20029;-82
2023/06/28 10:15:52;;;;;;;16.30;9.40;;;26.10;99.90;;;;;;5045623;28;20026;-82
2023/06/28 10:18:19;;;;;;;15.15;9.60;;;25.60;99.90;;;;;;5036467;28;20130;-81
2023/06/28 10:20:47;;;;;;;16.15;10.55;;;25.30;99.90;;;;;;5042915;28;20029;-80
2023/06/28 10:23:13;;;;;;;16.33;10.00;;;25.10;99.90;;;;;;5044199;28;20476;-82
2023/06/28 10:25:44;;;;;;;17.55;10.48;;;25.10;99.90;;;;;;5045055;28;20419;-81
2023/06/28 10:28:12;;;;;;;16.75;9.40;;;25.40;99.90;;;;;;5045544;28;20079;-83
2023/06/28 10:30:40;;;;;;;19.17;10.35;;;25.90;99.90;;;;;;5044182;28;20029;-82
2023/06/28 10:33:06;;;;;;;17.88;10.43;;;26.30;99.90;;;;;;5043842;28;20052;-83
2023/06/28 10:35:32;;;;;;;15.15;9.52;;;26.70;99.90;;;;;;5044193;28;20094;-83
2023/06/28 10:37:58;;;;;;;20.75;10.20;;;27.00;99.90;;;;;;5041107;28;20465;-83
2023/06/28 10:40:24;;;;;;;15.45;10.10;;;27.10;99.90;;;;;;5025073;28;20412;-83
2023/06/28 10:42:50;;;;;;;17.75;10.10;;;27.10;99.90;;;;;;5039288;28;20035;-81
2023/06/28 10:45:16;;;;;;;17.13;9.82;;;27.70;99.90;;;;;;5030656;28;20029;-80
2023/06/28 10:47:52;;;;;;;13.55;9.25;;;28.40;99.90;;;;;;5035736;28;20056;-80
2023/06/28 10:50:21;;;;;;;13.57;9.30;;;29.20;99.90;;;;;;5037039;28;20040;-80
2023/06/28 10:52:49;;;;;;;16.17;8.98;;;30.10;95.80;;;;;;5045278;28;20032;-81
2023/06/28 10:55:18;;;;;;;9.95;7.55;;;30.40;95.60;;;;;;5045959;28;20036;-81
2023/06/28 10:57:44;;;;;;;11.50;8.68;;;30.20;93.90;;;;;;5039029;28;20563;-82
2023/06/28 11:00:43;;;;;;;12.80;9.07;;;30.40;90.30;;;;;;5038532;28;20136;-81
2023/06/28 11:03:09;;;;;;;17.08;8.05;;;30.60;91.00;;;;;;5020054;28;20128;-81
2023/06/28 11:05:54;;;;;;;11.13;7.72;;;31.80;92.00;;;;;;5045428;28;20540;-81
2023/06/28 11:08:22;;;;;;;11.98;8.55;;;33.30;80.20;;;;;;5046693;28;20029;-81
2023/06/28 11:10:53;;;;;;;16.30;9.57;;;33.90;84.70;;;;;;5044503;28;20040;-81
2023/06/28 11:13:50;;;;;;;17.55;9.98;;;33.40;76.90;;;;;;5047161;28;20029;-80
2023/06/28 11:16:20;;;;;;;15.73;10.35;;;32.00;79.60;;;;;;5047017;28;20067;-80
2023/06/28 11:18:47;;;;;;;15.10;10.68;;;30.70;84.70;;;;;;5046322;28;20044;-82
2023/06/28 11:21:21;;;;;;;17.58;10.55;;;30.00;91.30;;;;;;5044121;28;20060;-81
2023/06/28 11:23:47;;;;;;;17.05;11.10;;;29.80;94.20;;;;;;5041751;28;20021;-82
2023/06/28 11:26:16;;;;;;;16.75;10.93;;;29.90;94.10;;;;;;5044554;28;20403;-81
2023/06/28 11:28:48;;;;;;;17.25;10.73;;;29.90;93.70;;;;;;5044910;28;20045;-80
2023/06/28 11:31:22;;;;;;;17.55;11.63;;;29.70;94.90;;;;;;5034608;28;20063;-80
2023/06/28 11:33:49;;;;;;;18.42;10.55;;;29.00;95.20;;;;;;5041812;28;20032;-81
2023/06/28 11:36:17;;;;;;;16.48;10.65;;;28.60;97.10;;;;;;5040366;28;20021;-81
2023/06/28 11:38:44;;;;;;;22.20;12.35;;;28.10;98.00;;;;;;5035770;28;20033;-80
2023/06/28 11:41:10;;;;;;;17.60;11.07;;;27.00;99.90;;;;;;5031799;28;20037;-81
2023/06/28 11:43:36;;;;;;;15.57;11.00;;;26.70;99.90;;;;;;5040793;28;20512;-79
2023/06/28 11:46:02;;;;;;;17.40;10.70;;;26.40;99.90;;;;;;5032646;28;20408;-80
2023/06/28 11:48:28;;;;;;;18.85;11.00;;;25.60;99.90;;;;;;5035406;28;20033;-80
2023/06/28 11:51:01;;;;;;;22.73;11.70;;;25.40;99.90;;;;;;5044154;28;20468;-80
2023/06/28 11:53:28;;;;;;;16.48;10.75;;;25.40;99.90;;;;;;5041644;28;20013;-80
2023/06/28 11:55:55;;;;;;;15.65;11.27;;;25.50;99.90;;;;;;5036723;28;20041;-81
2023/06/28 11:58:35;;;;;;;15.88;10.00;;;25.60;99.90;;;;;;5036343;28;20024;-80
2023/06/28 12:01:03;;;;;;;16.80;10.10;;;26.10;99.90;;;;;;5032603;28;20029;-81
2023/06/28 12:03:36;;;;;;;17.60;9.70;;;26.30;99.90;;;;;;5031704;28;20033;-80
2023/06/28 12:06:04;;;;;;;17.10;10.27;;;26.90;99.90;;;;;;5030620;28;20122;-80
2023/06/28 12:08:34;;;;;;;18.02;11.32;;;26.40;99.90;;;;;;5036475;28;20078;-80
2023/06/28 12:11:06;;;;;;;17.15;10.75;;;26.50;99.90;;;;;;5037204;28;20039;-79
2023/06/28 12:13:32;;;;;;;18.25;10.90;;;26.10;99.90;;;;;;5033345;28;21001;-82
2023/06/28 12:16:09;;;;;;;18.25;11.07;;;25.90;99.90;;;;;;5029181;28;20031;-83
2023/06/28 12:18:58;;;;;;;19.05;10.95;;;25.40;99.90;;;;;;5037574;28;20502;-82
2023/06/28 12:21:24;;;;;;;19.27;11.73;;;25.10;99.90;;;;;;5029291;28;20427;-83
2023/06/28 12:23:50;;;;;;;17.33;11.10;;;24.90;99.90;;;;;;5035825;28;20657;-84
2023/06/28 12:26:16;;;;;;;17.90;11.68;;;24.90;99.90;;;;;;5040581;28;20036;-84
2023/06/28 12:28:45;;;;;;;17.98;10.95;;;24.80;99.90;;;;;;5043812;28;20032;-83